Main page
METAR-TAF:

METAR-TAF

Airports :

Lahore, Pakistan

Allama Iqbal International Airport

latitude: 31-31N, longitude: 074-24E, elevation: 216 m

Current weather observation

The report was made 23 minutes ago, at 17:00 UTC
Wind 3 kt from the Southwest
Temperature 31°C
Humidity 59%
Pressure 999 hPa
Visibility: 4000 m
Scattered clouds at a height of 10000 ft
smoke

METAR: OPLA 231700Z 22003KT 4000 FU SCT100 31/22 Q0999 A29.51 NOSIG

Time: 22:23 (17:23 UTC)

Forecast

The report was made 7 hours and 38 minutes ago, at 09:45 UTC
Forecast valid from 23 at 12 UTC to 24 at 18 UTC
Wind 5 kt from the Southeast
Visibility: 4000 m
Few clouds at a height of 4000 ft
smoke
From UTC
Wind 6 kt from the West/Southwest
Visibility: 5000 m
haze

TAF: OPLA 230945Z 2312/2418 13005KT 4000 FU FEW040 TX39/2410Z TN26/2400Z FM 240400 24006KT 5000 HZ NSC

Weather observations and forecasts of more than 4000 airports (METAR and TAF reports).

The available stations are represented by yellow and red dots on the map.

Hover mouse over dot to see the name of the station.

Then click to see weather observations and forecasts.

To change the map : click on the green buttons with a black cross to zoom in, on the green button with a dash to zoom out, or on the green arrows for adjacent maps.


METAR-TAF: